Pace, Florida
Current Conditions -  °F | °C
As of 4:56 PM on Saturday 25 Oct 2014 (Local Time) from KNDZ Reporting Station
Clear Clear  
Wind Chill: 78°   Ceiling: Unl
Heat Index: 79°   Visibility: 10mi
Dew Point: 49°   Wind: 10mph
Humidity: 36%   Direction: 10°N
Pressure: 30.03"   Gusts: NA
Location:  30.6712°N, 87.194°W
Report Text: KNDZ 252156Z AUTO 01009KT 10SM CLR 26/09 A3003 RMK AO2 SLP157 T02560094 $
Loading
Personal Weather Stations






























Interactive Weather Map
Tropical Storm Tracking
New forecast layout! Learn more

10-Day Weather Forecast

Advertisements
Track Severe Weather on mobile